Time;durP1;ratioP1;P1;durP2;ratioP2;P2;SDS_P1;SDS_P2;PMS_P1;PMS_P2;Temp;Humidity;BMP_temperature;BMP_pressure;BME280_temperature;BME280_humidity;BME280_pressure;Samples;Min_cycle;Max_cycle;Signal;HPM_P1;HPM_P2
2024/03/30 00:01:25;;;;;;;6.73;6.23;;;;;;;;;;5072360;28;20206;-64
2024/03/30 00:03:54;;;;;;;6.57;6.07;;;;;;;;;;5071325;28;20875;-64
2024/03/30 00:06:20;;;;;;;6.03;5.63;;;;;;;;;;5077379;28;20278;-63
2024/03/30 00:08:46;;;;;;;5.37;4.97;;;;;;;;;;5072279;28;20476;-64
2024/03/30 00:11:12;;;;;;;5.33;4.90;;;;;;;;;;5073069;28;20213;-64
2024/03/30 00:13:38;;;;;;;5.77;5.37;;;;;;;;;;5076905;28;21301;-64
2024/03/30 00:16:06;;;;;;;6.03;5.53;;;;;;;;;;5076544;28;20229;-64
2024/03/30 00:18:32;;;;;;;5.50;5.00;;;;;;;;;;5073899;28;20455;-64
2024/03/30 00:20:59;;;;;;;7.13;6.07;;;;;;;;;;5075360;28;20482;-64
2024/03/30 00:23:25;;;;;;;6.37;5.77;;;;;;;;;;5076396;28;20506;-64
2024/03/30 00:25:52;;;;;;;6.53;5.93;;;;;;;;;;5073336;28;20486;-64
2024/03/30 00:28:18;;;;;;;6.53;6.03;;;;;;;;;;5074311;28;20448;-63
2024/03/30 00:30:45;;;;;;;6.80;6.20;;;;;;;;;;5068222;28;20467;-63
2024/03/30 00:33:11;;;;;;;7.37;6.77;;;;;;;;;;5074071;28;20456;-63
2024/03/30 00:35:37;;;;;;;8.17;7.40;;;;;;;;;;5075194;28;20574;-62
2024/03/30 00:38:06;;;;;;;8.60;7.80;;;;;;;;;;5071258;28;20444;-62
2024/03/30 00:40:32;;;;;;;8.07;7.27;;;;;;;;;;5070228;28;20209;-62
2024/03/30 00:42:58;;;;;;;10.60;8.63;;;;;;;;;;5072742;28;20499;-62
2024/03/30 00:45:24;;;;;;;8.23;7.43;;;;;;;;;;5073004;28;20212;-62
2024/03/30 00:47:50;;;;;;;6.83;6.23;;;;;;;;;;5077891;28;20448;-62
2024/03/30 00:50:16;;;;;;;8.83;8.10;;;;;;;;;;5073869;28;20232;-63
2024/03/30 00:52:42;;;;;;;9.10;8.17;;;;;;;;;;5076907;28;20913;-62
2024/03/30 00:55:09;;;;;;;9.50;8.60;;;;;;;;;;5077209;28;20210;-63
2024/03/30 00:57:41;;;;;;;9.87;8.87;;;;;;;;;;5076720;28;20460;-63
2024/03/30 01:00:07;;;;;;;9.93;8.93;;;;;;;;;;5075791;28;20464;-63
2024/03/30 01:02:33;;;;;;;10.33;9.33;;;;;;;;;;5072986;28;20459;-63
2024/03/30 01:04:59;;;;;;;10.00;9.10;;;;;;;;;;5076227;28;20243;-64
2024/03/30 01:07:25;;;;;;;11.30;10.10;;;;;;;;;;5073290;28;20436;-64
2024/03/30 01:09:52;;;;;;;10.37;9.37;;;;;;;;;;5079119;28;20260;-64
2024/03/30 01:12:20;;;;;;;11.70;10.60;;;;;;;;;;5070629;28;20471;-64
2024/03/30 01:14:46;;;;;;;11.33;10.30;;;;;;;;;;5066701;28;20504;-63
2024/03/30 01:17:13;;;;;;;11.80;10.63;;;;;;;;;;5073614;28;20535;-63
2024/03/30 01:19:39;;;;;;;11.90;10.63;;;;;;;;;;5078818;28;20475;-63
2024/03/30 01:22:06;;;;;;;11.50;10.30;;;;;;;;;;5074814;28;20458;-63
2024/03/30 01:24:32;;;;;;;13.07;11.77;;;;;;;;;;5075421;28;20201;-63
2024/03/30 01:26:59;;;;;;;13.43;10.23;;;;;;;;;;5072275;28;20482;-63
2024/03/30 01:29:27;;;;;;;16.53;10.90;;;;;;;;;;5073464;28;20268;-67
2024/03/30 01:31:54;;;;;;;12.10;10.90;;;;;;;;;;5079139;28;20494;-62
2024/03/30 01:34:20;;;;;;;14.27;12.10;;;;;;;;;;5074291;28;20457;-63
2024/03/30 01:36:47;;;;;;;12.90;11.17;;;;;;;;;;5074912;28;20440;-63
2024/03/30 01:39:12;;;;;;;13.27;11.87;;;;;;;;;;5073026;28;20297;-63
2024/03/30 01:41:39;;;;;;;13.80;12.17;;;;;;;;;;5075856;28;20515;-63
2024/03/30 01:44:05;;;;;;;14.37;12.13;;;;;;;;;;5080122;28;20202;-63
2024/03/30 01:46:33;;;;;;;14.43;12.27;;;;;;;;;;5077462;28;20465;-62
2024/03/30 01:48:59;;;;;;;15.17;12.30;;;;;;;;;;5078086;28;20209;-62
2024/03/30 01:51:26;;;;;;;14.50;12.70;;;;;;;;;;5079481;28;20443;-62
2024/03/30 01:53:52;;;;;;;14.60;12.67;;;;;;;;;;5079089;28;20436;-62
2024/03/30 01:56:19;;;;;;;16.60;12.20;;;;;;;;;;5079160;28;20484;-62
2024/03/30 01:58:47;;;;;;;12.70;11.40;;;;;;;;;;5077140;28;20202;-62
2024/03/30 02:01:13;;;;;;;14.17;12.53;;;;;;;;;;5079887;28;20534;-62
2024/03/30 02:03:41;;;;;;;16.20;13.17;;;;;;;;;;5076321;28;20448;-63
2024/03/30 02:06:08;;;;;;;14.80;13.27;;;;;;;;;;5074560;28;20450;-62
2024/03/30 02:08:34;;;;;;;15.83;13.47;;;;;;;;;;5072330;28;20428;-63
2024/03/30 02:11:01;;;;;;;14.30;12.80;;;;;;;;;;5077567;28;20994;-63
2024/03/30 02:13:27;;;;;;;13.17;11.80;;;;;;;;;;5076918;28;20487;-63
2024/03/30 02:15:53;;;;;;;15.13;12.53;;;;;;;;;;5077732;28;20488;-63
2024/03/30 02:18:19;;;;;;;13.70;12.20;;;;;;;;;;5068831;28;20209;-63
2024/03/30 02:20:46;;;;;;;15.73;12.17;;;;;;;;;;5080789;28;20490;-63
2024/03/30 02:23:14;;;;;;;13.20;11.90;;;;;;;;;;5075090;28;20221;-63
2024/03/30 02:25:40;;;;;;;14.13;12.63;;;;;;;;;;5077648;28;20451;-64
2024/03/30 02:28:06;;;;;;;14.07;11.90;;;;;;;;;;5078992;28;20467;-63
2024/03/30 02:30:32;;;;;;;13.17;11.77;;;;;;;;;;5077721;28;20448;-62
2024/03/30 02:32:58;;;;;;;14.50;12.20;;;;;;;;;;5076386;28;20198;-63
2024/03/30 02:35:24;;;;;;;17.27;11.60;;;;;;;;;;5078049;28;21084;-62
2024/03/30 02:37:52;;;;;;;14.50;12.83;;;;;;;;;;5080227;28;20201;-63
2024/03/30 02:40:22;;;;;;;19.00;13.40;;;;;;;;;;5079035;28;20468;-62
2024/03/30 02:42:48;;;;;;;15.00;11.97;;;;;;;;;;5078489;28;20979;-62
2024/03/30 02:45:14;;;;;;;15.83;11.60;;;;;;;;;;5072881;28;20462;-62
2024/03/30 02:47:39;;;;;;;13.40;12.00;;;;;;;;;;5075830;28;20213;-62
2024/03/30 02:50:06;;;;;;;15.17;12.50;;;;;;;;;;5078298;28;20509;-63
2024/03/30 02:52:32;;;;;;;18.17;13.77;;;;;;;;;;5076866;28;20637;-63
2024/03/30 02:54:58;;;;;;;16.00;12.30;;;;;;;;;;5073174;28;20483;-63
2024/03/30 02:57:25;;;;;;;14.17;12.40;;;;;;;;;;5078420;28;20875;-63
2024/03/30 02:59:52;;;;;;;13.73;11.50;;;;;;;;;;5068637;28;20978;-63
2024/03/30 03:02:17;;;;;;;20.17;12.50;;;;;;;;;;5067936;28;20456;-63
2024/03/30 03:04:44;;;;;;;13.27;11.57;;;;;;;;;;5079994;28;20470;-63
2024/03/30 03:07:09;;;;;;;15.87;11.80;;;;;;;;;;5078902;28;20205;-63
2024/03/30 03:09:36;;;;;;;14.00;12.13;;;;;;;;;;5072842;28;20456;-63
2024/03/30 03:12:02;;;;;;;15.20;12.63;;;;;;;;;;5076195;28;20697;-63
2024/03/30 03:14:30;;;;;;;15.60;12.73;;;;;;;;;;5076625;28;20442;-64
2024/03/30 03:16:56;;;;;;;14.50;12.43;;;;;;;;;;5074710;28;20456;-63
2024/03/30 03:19:23;;;;;;;16.07;13.10;;;;;;;;;;5072935;28;20454;-63
2024/03/30 03:21:48;;;;;;;14.50;12.10;;;;;;;;;;5076743;28;20293;-63
2024/03/30 03:24:15;;;;;;;15.70;12.70;;;;;;;;;;5076473;28;20491;-63
2024/03/30 03:26:41;;;;;;;14.33;12.20;;;;;;;;;;5075101;28;20201;-63
2024/03/30 03:29:07;;;;;;;15.30;11.70;;;;;;;;;;5073650;28;20451;-63
2024/03/30 03:31:34;;;;;;;15.60;13.10;;;;;;;;;;5075601;28;20214;-63
2024/03/30 03:34:00;;;;;;;15.93;13.20;;;;;;;;;;5071504;28;20448;-63
2024/03/30 03:36:26;;;;;;;15.63;12.37;;;;;;;;;;5077446;28;20480;-63
2024/03/30 03:38:52;;;;;;;14.50;13.00;;;;;;;;;;5071880;28;20439;-62
2024/03/30 03:41:18;;;;;;;14.60;11.97;;;;;;;;;;5076985;28;20765;-62
2024/03/30 03:43:44;;;;;;;14.50;11.83;;;;;;;;;;5075752;28;20451;-63
2024/03/30 03:46:10;;;;;;;15.57;12.13;;;;;;;;;;5068916;28;20693;-64
2024/03/30 03:48:38;;;;;;;12.57;11.30;;;;;;;;;;5069450;28;20445;-63
2024/03/30 03:51:04;;;;;;;14.03;12.13;;;;;;;;;;5076261;28;20210;-63
2024/03/30 03:53:30;;;;;;;13.63;11.27;;;;;;;;;;5081752;28;20436;-64
2024/03/30 03:55:56;;;;;;;12.40;11.10;;;;;;;;;;5074023;28;20487;-63
2024/03/30 03:58:22;;;;;;;14.87;11.53;;;;;;;;;;5078755;28;20459;-63
2024/03/30 04:00:48;;;;;;;15.20;10.90;;;;;;;;;;5073278;28;20218;-63
2024/03/30 04:03:15;;;;;;;12.93;11.03;;;;;;;;;;5070718;28;20444;-63
2024/03/30 04:05:42;;;;;;;13.30;11.63;;;;;;;;;;5070265;28;20232;-63
2024/03/30 04:08:09;;;;;;;11.43;9.77;;;;;;;;;;5071167;28;20437;-64
2024/03/30 04:10:34;;;;;;;12.20;9.63;;;;;;;;;;5078824;28;20490;-63
2024/03/30 04:13:01;;;;;;;14.27;9.90;;;;;;;;;;5077832;28;20461;-62
2024/03/30 04:15:27;;;;;;;13.90;9.97;;;;;;;;;;5070078;28;20239;-63
2024/03/30 04:17:53;;;;;;;12.13;10.53;;;;;;;;;;5072930;28;21167;-63
2024/03/30 04:20:19;;;;;;;13.83;10.60;;;;;;;;;;5071510;28;20241;-63
2024/03/30 04:22:46;;;;;;;11.83;10.53;;;;;;;;;;5071028;28;20486;-63
2024/03/30 04:25:12;;;;;;;12.10;10.50;;;;;;;;;;5076745;28;20228;-62
2024/03/30 04:27:38;;;;;;;13.97;9.73;;;;;;;;;;5072547;28;21211;-62
2024/03/30 04:30:07;;;;;;;11.70;10.03;;;;;;;;;;5075001;28;20235;-62
2024/03/30 04:32:33;;;;;;;12.83;10.53;;;;;;;;;;5076306;28;20442;-62
2024/03/30 04:34:59;;;;;;;11.80;9.27;;;;;;;;;;5073816;28;20452;-62
2024/03/30 04:37:25;;;;;;;11.93;9.30;;;;;;;;;;5077159;28;20452;-62
2024/03/30 04:39:53;;;;;;;12.93;10.20;;;;;;;;;;5075983;28;20210;-62
2024/03/30 04:42:20;;;;;;;11.00;8.80;;;;;;;;;;5075507;28;20456;-62
2024/03/30 04:44:45;;;;;;;10.43;8.80;;;;;;;;;;5075922;28;20462;-63
2024/03/30 04:47:12;;;;;;;10.83;9.20;;;;;;;;;;5068368;28;20449;-63
2024/03/30 04:49:37;;;;;;;11.20;8.53;;;;;;;;;;5075439;28;20209;-62
2024/03/30 04:52:04;;;;;;;10.20;8.67;;;;;;;;;;5075963;28;20455;-63
2024/03/30 04:54:30;;;;;;;9.30;7.70;;;;;;;;;;5073686;28;20202;-62
2024/03/30 04:56:58;;;;;;;9.63;8.63;;;;;;;;;;5080869;28;20480;-62
2024/03/30 04:59:24;;;;;;;9.83;8.20;;;;;;;;;;5076099;28;20502;-63
2024/03/30 05:01:50;;;;;;;9.47;8.20;;;;;;;;;;5072324;28;20440;-63
2024/03/30 05:04:16;;;;;;;8.87;7.97;;;;;;;;;;5063934;28;20210;-63
2024/03/30 05:06:42;;;;;;;8.57;7.50;;;;;;;;;;5076138;28;20852;-63
2024/03/30 05:09:08;;;;;;;10.03;8.23;;;;;;;;;;5076110;28;20198;-63
2024/03/30 05:11:34;;;;;;;10.93;9.07;;;;;;;;;;5075715;28;20463;-63
2024/03/30 05:14:01;;;;;;;11.07;8.40;;;;;;;;;;5074045;28;20213;-63
2024/03/30 05:16:29;;;;;;;10.43;8.73;;;;;;;;;;5075530;28;20519;-62
2024/03/30 05:18:54;;;;;;;9.40;7.60;;;;;;;;;;5071412;28;20587;-62
2024/03/30 05:21:21;;;;;;;10.07;7.67;;;;;;;;;;5083832;28;20510;-62
2024/03/30 05:23:46;;;;;;;9.87;7.90;;;;;;;;;;5073479;28;20202;-62
2024/03/30 05:26:13;;;;;;;9.63;7.30;;;;;;;;;;5079365;28;20466;-63
2024/03/30 05:28:38;;;;;;;8.97;7.40;;;;;;;;;;5085057;28;20213;-63
2024/03/30 05:31:07;;;;;;;10.37;8.27;;;;;;;;;;5077827;28;21138;-63
2024/03/30 05:33:33;;;;;;;8.40;7.43;;;;;;;;;;5072994;28;20312;-62
2024/03/30 05:35:59;;;;;;;8.13;7.20;;;;;;;;;;5079925;28;21399;-63
2024/03/30 05:38:25;;;;;;;7.73;6.83;;;;;;;;;;5079358;28;20206;-63
2024/03/30 05:40:51;;;;;;;14.10;8.17;;;;;;;;;;5075789;28;20455;-63
2024/03/30 05:43:17;;;;;;;10.70;9.20;;;;;;;;;;5079780;28;20206;-63
2024/03/30 05:45:47;;;;;;;8.23;6.47;;;;;;;;;;5078366;28;20448;-62
2024/03/30 05:48:14;;;;;;;8.27;7.07;;;;;;;;;;5080335;28;20209;-63
2024/03/30 05:50:40;;;;;;;7.80;6.60;;;;;;;;;;5082298;28;20498;-62
2024/03/30 05:53:06;;;;;;;8.53;6.70;;;;;;;;;;5077416;28;20440;-63
2024/03/30 05:55:32;;;;;;;6.53;5.77;;;;;;;;;;5079524;28;20893;-63
2024/03/30 05:58:02;;;;;;;5.77;5.27;;;;;;;;;;5072590;28;20221;-62
2024/03/30 06:00:29;;;;;;;5.87;5.27;;;;;;;;;;5076765;28;20452;-62
2024/03/30 06:02:55;;;;;;;5.00;4.60;;;;;;;;;;5079394;28;20440;-62
2024/03/30 06:05:23;;;;;;;8.30;5.97;;;;;;;;;;5076015;28;20448;-61
2024/03/30 06:07:48;;;;;;;7.43;5.20;;;;;;;;;;5078589;28;20215;-62
2024/03/30 06:10:15;;;;;;;6.20;4.77;;;;;;;;;;5073058;28;20455;-62
2024/03/30 06:12:40;;;;;;;4.97;4.57;;;;;;;;;;5075949;28;20213;-62
2024/03/30 06:15:07;;;;;;;5.50;5.00;;;;;;;;;;5073057;28;20446;-62
2024/03/30 06:17:36;;;;;;;5.93;4.97;;;;;;;;;;5079485;28;20228;-63
2024/03/30 06:20:05;;;;;;;5.30;4.50;;;;;;;;;;5079362;28;20861;-63
2024/03/30 06:22:32;;;;;;;5.33;4.90;;;;;;;;;;5079954;28;20444;-62
2024/03/30 06:24:58;;;;;;;4.60;4.20;;;;;;;;;;5079539;28;20478;-63
2024/03/30 06:27:24;;;;;;;4.80;4.40;;;;;;;;;;5077385;28;20455;-62
2024/03/30 06:29:50;;;;;;;4.37;3.97;;;;;;;;;;5080676;28;20457;-63
2024/03/30 06:32:16;;;;;;;4.57;4.17;;;;;;;;;;5077147;28;20213;-63
2024/03/30 06:34:42;;;;;;;4.70;3.80;;;;;;;;;;5078873;28;20436;-63
2024/03/30 06:37:08;;;;;;;4.20;3.20;;;;;;;;;;5076767;28;20238;-63
2024/03/30 06:45:00;;;;;;;4.57;3.20;;;;;;;;;;5067912;28;21201;-62
2024/03/30 06:47:27;;;;;;;3.53;3.23;;;;;;;;;;5076750;28;20444;-62
2024/03/30 06:49:52;;;;;;;4.80;3.40;;;;;;;;;;5076789;28;20461;-62
2024/03/30 06:52:18;;;;;;;3.30;3.00;;;;;;;;;;5074822;28;20444;-62
2024/03/30 06:54:46;;;;;;;3.33;3.03;;;;;;;;;;5073335;28;21116;-63
2024/03/30 06:57:12;;;;;;;3.80;3.50;;;;;;;;;;5078545;28;20923;-63
2024/03/30 06:59:38;;;;;;;5.13;3.60;;;;;;;;;;5076247;28;20436;-62
2024/03/30 07:02:04;;;;;;;3.97;3.30;;;;;;;;;;5071415;28;20214;-62
2024/03/30 07:04:30;;;;;;;3.70;3.40;;;;;;;;;;5073639;28;20466;-62
2024/03/30 07:06:56;;;;;;;5.80;3.40;;;;;;;;;;5073951;28;20201;-62
2024/03/30 07:09:23;;;;;;;3.80;3.20;;;;;;;;;;5073483;28;20440;-63
2024/03/30 07:11:49;;;;;;;5.10;3.20;;;;;;;;;;5067620;28;20376;-70
2024/03/30 07:14:16;;;;;;;6.50;3.60;;;;;;;;;;5068611;28;20957;-70
2024/03/30 07:16:41;;;;;;;4.00;3.70;;;;;;;;;;5071887;28;20541;-70
2024/03/30 07:19:08;;;;;;;5.40;4.40;;;;;;;;;;5072235;28;20459;-70
2024/03/30 07:21:33;;;;;;;4.40;4.10;;;;;;;;;;5075047;28;20241;-70
2024/03/30 07:24:00;;;;;;;7.47;4.47;;;;;;;;;;5075844;28;20819;-70
2024/03/30 07:26:25;;;;;;;6.00;4.93;;;;;;;;;;5075212;28;20210;-70
2024/03/30 07:28:53;;;;;;;8.40;4.80;;;;;;;;;;5071263;28;20468;-71
2024/03/30 07:31:19;;;;;;;6.90;4.13;;;;;;;;;;5068540;28;20308;-71
2024/03/30 07:33:46;;;;;;;6.13;4.30;;;;;;;;;;5076506;28;20459;-71
2024/03/30 07:36:11;;;;;;;6.47;4.30;;;;;;;;;;5072570;28;20243;-71
2024/03/30 07:38:40;;;;;;;7.20;4.13;;;;;;;;;;5072086;28;20883;-71
2024/03/30 07:41:05;;;;;;;5.70;4.07;;;;;;;;;;5071133;28;20210;-72
2024/03/30 07:43:32;;;;;;;5.13;4.57;;;;;;;;;;5083541;28;20466;-71
2024/03/30 07:46:01;;;;;;;5.47;4.40;;;;;;;;;;5079982;28;20258;-71
2024/03/30 07:48:28;;;;;;;4.93;4.30;;;;;;;;;;5080571;28;20541;-71
2024/03/30 07:50:53;;;;;;;6.33;4.20;;;;;;;;;;5078584;28;20455;-72
2024/03/30 07:53:21;;;;;;;5.43;4.93;;;;;;;;;;5080970;28;20450;-72
2024/03/30 07:55:47;;;;;;;4.73;4.33;;;;;;;;;;5081720;28;20233;-72
2024/03/30 07:58:14;;;;;;;5.83;4.57;;;;;;;;;;5077758;28;20481;-72
2024/03/30 08:00:40;;;;;;;6.60;4.13;;;;;;;;;;5075492;28;20455;-72
2024/03/30 08:03:08;;;;;;;4.50;4.10;;;;;;;;;;5074463;28;21069;-71
2024/03/30 08:05:33;;;;;;;4.57;4.10;;;;;;;;;;5076797;28;20209;-72
2024/03/30 08:08:00;;;;;;;5.97;4.17;;;;;;;;;;5077547;28;20451;-72
2024/03/30 08:10:25;;;;;;;6.03;4.77;;;;;;;;;;5079195;28;20213;-72
2024/03/30 08:12:52;;;;;;;5.27;4.50;;;;;;;;;;5072615;28;20458;-72
2024/03/30 08:15:17;;;;;;;9.20;4.23;;;;;;;;;;5077325;28;20201;-72
2024/03/30 08:17:44;;;;;;;6.13;4.30;;;;;;;;;;5077148;28;21310;-72
2024/03/30 08:20:11;;;;;;;5.03;4.60;;;;;;;;;;5076573;28;20238;-72
2024/03/30 08:22:37;;;;;;;6.40;5.10;;;;;;;;;;5076778;28;20482;-72
2024/03/30 08:25:03;;;;;;;7.73;4.87;;;;;;;;;;5077735;28;20432;-72
2024/03/30 08:27:30;;;;;;;5.40;4.87;;;;;;;;;;5072532;28;20451;-72
2024/03/30 08:29:55;;;;;;;11.37;5.20;;;;;;;;;;5076899;28;21415;-72
2024/03/30 08:32:22;;;;;;;7.23;5.23;;;;;;;;;;5074421;28;20464;-72
2024/03/30 08:34:47;;;;;;;6.73;5.07;;;;;;;;;;5075980;28;20572;-72
2024/03/30 08:37:15;;;;;;;6.47;4.53;;;;;;;;;;5077437;28;20556;-72
2024/03/30 08:39:41;;;;;;;8.77;3.90;;;;;;;;;;5079703;28;20205;-72
2024/03/30 08:42:08;;;;;;;6.97;4.17;;;;;;;;;;5083926;28;20459;-71
2024/03/30 08:44:33;;;;;;;7.93;5.23;;;;;;;;;;5072201;28;20205;-75
2024/03/30 08:47:00;;;;;;;5.57;5.07;;;;;;;;;;5068859;28;20537;-75
2024/03/30 08:49:26;;;;;;;11.33;4.57;;;;;;;;;;5064681;28;20201;-75
2024/03/30 08:51:52;;;;;;;9.80;4.70;;;;;;;;;;5067003;28;20470;-74
2024/03/30 08:54:19;;;;;;;9.47;4.80;;;;;;;;;;5071754;28;20224;-75
2024/03/30 08:56:46;;;;;;;7.03;3.33;;;;;;;;;;5066942;28;20586;-70
2024/03/30 08:59:11;;;;;;;4.97;3.33;;;;;;;;;;5070161;28;20494;-63
2024/03/30 09:01:38;;;;;;;3.40;2.70;;;;;;;;;;5080277;28;20498;-72
2024/03/30 09:04:03;;;;;;;11.43;5.37;;;;;;;;;;5078158;28;20541;-79
2024/03/30 09:06:30;;;;;;;10.47;4.87;;;;;;;;;;5075511;28;20458;-81
2024/03/30 09:08:55;;;;;;;6.53;4.83;;;;;;;;;;5075849;28;20195;-77
2024/03/30 09:11:23;;;;;;;6.50;4.67;;;;;;;;;;5078509;28;20463;-80
2024/03/30 09:13:49;;;;;;;11.17;5.20;;;;;;;;;;5079292;28;20209;-78
2024/03/30 09:16:15;;;;;;;10.80;4.77;;;;;;;;;;5079246;28;20491;-77
2024/03/30 09:18:41;;;;;;;7.87;4.57;;;;;;;;;;5080325;28;20210;-72
2024/03/30 09:21:07;;;;;;;9.37;4.93;;;;;;;;;;5079828;28;20503;-73
2024/03/30 09:23:33;;;;;;;12.77;5.90;;;;;;;;;;5077219;28;20224;-72
2024/03/30 09:26:00;;;;;;;7.00;4.63;;;;;;;;;;5075788;28;20443;-69
2024/03/30 09:28:27;;;;;;;7.57;4.60;;;;;;;;;;5079969;28;20209;-69
2024/03/30 09:30:53;;;;;;;8.63;4.40;;;;;;;;;;5081699;28;20452;-71
2024/03/30 09:33:19;;;;;;;8.57;4.43;;;;;;;;;;5077202;28;20471;-75
2024/03/30 09:35:45;;;;;;;6.87;4.00;;;;;;;;;;5078221;28;20935;-75
2024/03/30 09:38:11;;;;;;;11.30;4.97;;;;;;;;;;5076638;28;20198;-76
2024/03/30 09:40:37;;;;;;;6.60;4.57;;;;;;;;;;5073556;28;20984;-76
2024/03/30 09:43:03;;;;;;;7.23;3.90;;;;;;;;;;5073279;28;20220;-77
2024/03/30 09:45:31;;;;;;;5.80;4.57;;;;;;;;;;5075815;28;20858;-77
2024/03/30 09:47:58;;;;;;;5.87;4.40;;;;;;;;;;5077629;28;20209;-66
2024/03/30 09:50:24;;;;;;;8.73;5.23;;;;;;;;;;5080663;28;20454;-67
2024/03/30 09:52:51;;;;;;;7.57;4.80;;;;;;;;;;5079302;28;20444;-76
2024/03/30 09:55:18;;;;;;;6.73;4.20;;;;;;;;;;5080376;28;20451;-67
2024/03/30 09:57:44;;;;;;;6.50;4.30;;;;;;;;;;5075044;28;20484;-68
2024/03/30 10:00:11;;;;;;;7.60;4.47;;;;;;;;;;5073682;28;20456;-68
2024/03/30 10:02:39;;;;;;;8.13;4.60;;;;;;;;;;5072064;28;20455;-67
2024/03/30 10:05:07;;;;;;;8.33;4.63;;;;;;;;;;5074070;28;20546;-73
2024/03/30 10:07:34;;;;;;;8.10;3.90;;;;;;;;;;5077845;28;20462;-73
2024/03/30 10:10:04;;;;;;;8.67;5.03;;;;;;;;;;5076325;28;20452;-76
2024/03/30 10:12:30;;;;;;;5.77;3.93;;;;;;;;;;5077177;28;20842;-75
2024/03/30 10:14:59;;;;;;;9.57;4.10;;;;;;;;;;5074819;28;20440;-72
2024/03/30 10:17:25;;;;;;;9.17;4.30;;;;;;;;;;5073531;28;20503;-70
2024/03/30 10:19:56;;;;;;;9.47;4.50;;;;;;;;;;5070684;28;20491;-70
2024/03/30 10:22:22;;;;;;;8.40;5.33;;;;;;;;;;5078630;28;20247;-73
2024/03/30 10:24:49;;;;;;;10.70;5.50;;;;;;;;;;5078000;28;20448;-70
2024/03/30 10:27:14;;;;;;;14.70;6.10;;;;;;;;;;5078040;28;20707;-69
2024/03/30 10:29:43;;;;;;;10.60;5.97;;;;;;;;;;5076522;28;20466;-70
2024/03/30 10:32:09;;;;;;;10.57;6.23;;;;;;;;;;5073366;28;20545;-69
2024/03/30 10:34:36;;;;;;;10.87;5.30;;;;;;;;;;5074577;28;20447;-70
2024/03/30 10:37:03;;;;;;;11.80;5.60;;;;;;;;;;5077647;28;20359;-70
2024/03/30 10:39:29;;;;;;;19.60;6.70;;;;;;;;;;5075303;28;20460;-69
2024/03/30 10:41:55;;;;;;;15.40;7.40;;;;;;;;;;5066830;28;20478;-70
2024/03/30 10:44:25;;;;;;;17.17;6.23;;;;;;;;;;5086960;28;20454;-72
2024/03/30 10:46:51;;;;;;;12.70;6.37;;;;;;;;;;5085997;28;20202;-71
2024/03/30 10:49:17;;;;;;;10.10;5.87;;;;;;;;;;5085530;28;20451;-71
2024/03/30 10:51:43;;;;;;;15.07;6.50;;;;;;;;;;5084372;28;20455;-71
2024/03/30 10:54:13;;;;;;;12.50;5.93;;;;;;;;;;5076620;28;20493;-72
2024/03/30 10:56:45;;;;;;;13.50;6.33;;;;;;;;;;5083482;28;20229;-72
2024/03/30 10:59:11;;;;;;;12.33;6.70;;;;;;;;;;5082961;28;20471;-77
2024/03/30 11:01:37;;;;;;;13.97;5.80;;;;;;;;;;5086216;28;20454;-77
2024/03/30 11:04:05;;;;;;;13.90;7.40;;;;;;;;;;5079954;28;20450;-73
2024/03/30 11:06:31;;;;;;;15.00;7.00;;;;;;;;;;5081473;28;20210;-74
2024/03/30 11:08:58;;;;;;;16.33;7.30;;;;;;;;;;5083530;28;20443;-73
2024/03/30 11:11:25;;;;;;;8.27;6.00;;;;;;;;;;5082658;28;20209;-80
2024/03/30 11:13:51;;;;;;;16.70;7.23;;;;;;;;;;5089258;28;20436;-72
2024/03/30 11:16:17;;;;;;;15.13;7.00;;;;;;;;;;5078340;28;20469;-73
2024/03/30 11:18:48;;;;;;;15.20;7.13;;;;;;;;;;5082742;28;20654;-72
2024/03/30 11:21:15;;;;;;;17.47;7.13;;;;;;;;;;5080622;28;20264;-73
2024/03/30 11:23:42;;;;;;;20.47;7.43;;;;;;;;;;5084152;28;20451;-78
2024/03/30 11:26:09;;;;;;;26.53;7.90;;;;;;;;;;5085328;28;20456;-76
2024/03/30 11:28:43;;;;;;;13.83;7.40;;;;;;;;;;5083392;28;20487;-78
2024/03/30 11:31:09;;;;;;;17.43;7.87;;;;;;;;;;5076994;28;20447;-77
2024/03/30 11:33:43;;;;;;;15.40;7.07;;;;;;;;;;5086640;28;20450;-74
2024/03/30 11:36:13;;;;;;;19.67;9.13;;;;;;;;;;5083040;28;20981;-75
2024/03/30 11:38:39;;;;;;;22.10;8.47;;;;;;;;;;5080231;28;20454;-73
2024/03/30 11:41:05;;;;;;;16.30;8.20;;;;;;;;;;5081473;28;20989;-73
2024/03/30 11:43:33;;;;;;;25.70;8.13;;;;;;;;;;5084827;28;20450;-72
2024/03/30 11:46:01;;;;;;;14.10;6.93;;;;;;;;;;5079288;28;20201;-71
2024/03/30 11:48:27;;;;;;;13.23;7.53;;;;;;;;;;5077951;28;20561;-73
2024/03/30 11:50:53;;;;;;;21.63;7.43;;;;;;;;;;5076539;28;20478;-73
2024/03/30 11:53:20;;;;;;;11.40;7.03;;;;;;;;;;5075526;28;20523;-73
2024/03/30 11:55:48;;;;;;;16.50;8.20;;;;;;;;;;5075623;28;20456;-73
2024/03/30 11:58:19;;;;;;;26.73;9.03;;;;;;;;;;5077807;28;20476;-75
2024/03/30 12:00:48;;;;;;;14.97;7.10;;;;;;;;;;5082868;28;20471;-76
2024/03/30 12:03:16;;;;;;;20.13;8.40;;;;;;;;;;5073651;28;20463;-72
2024/03/30 12:05:44;;;;;;;24.20;8.33;;;;;;;;;;5073540;28;20462;-73
2024/03/30 12:08:10;;;;;;;20.07;7.90;;;;;;;;;;5080880;28;20505;-72
2024/03/30 12:10:46;;;;;;;14.77;7.73;;;;;;;;;;5079331;28;20451;-77
2024/03/30 12:13:13;;;;;;;16.80;7.83;;;;;;;;;;5081044;28;20463;-83
2024/03/30 12:15:39;;;;;;;21.13;7.90;;;;;;;;;;5074163;28;20911;-82
2024/03/30 12:18:05;;;;;;;17.53;7.80;;;;;;;;;;5074141;28;20491;-81
2024/03/30 12:20:33;;;;;;;26.53;9.43;;;;;;;;;;5074429;28;20240;-83
2024/03/30 12:22:59;;;;;;;23.73;8.30;;;;;;;;;;5075964;28;20456;-71
2024/03/30 12:25:26;;;;;;;16.27;7.57;;;;;;;;;;5074731;28;20462;-73
2024/03/30 12:27:52;;;;;;;23.00;7.73;;;;;;;;;;5073350;28;20483;-73
2024/03/30 12:30:18;;;;;;;14.87;6.53;;;;;;;;;;5076289;28;20451;-75
2024/03/30 12:32:45;;;;;;;18.27;8.33;;;;;;;;;;5079178;28;20453;-76
2024/03/30 12:35:11;;;;;;;24.20;7.63;;;;;;;;;;5076010;28;20210;-78
2024/03/30 12:37:41;;;;;;;20.30;7.63;;;;;;;;;;5073516;28;20483;-77
2024/03/30 12:40:07;;;;;;;22.53;7.70;;;;;;;;;;5064072;28;20213;-75
2024/03/30 12:42:34;;;;;;;19.60;7.00;;;;;;;;;;5070919;28;20513;-70
2024/03/30 12:44:59;;;;;;;24.97;7.53;;;;;;;;;;5069613;28;20979;-69
2024/03/30 12:47:26;;;;;;;19.03;6.80;;;;;;;;;;5070367;28;20440;-70
2024/03/30 12:49:51;;;;;;;24.10;6.30;;;;;;;;;;5071732;28;20209;-70
2024/03/30 12:52:18;;;;;;;21.33;7.43;;;;;;;;;;5076131;28;20461;-74
2024/03/30 12:54:45;;;;;;;19.93;7.53;;;;;;;;;;5073989;28;20494;-73
2024/03/30 12:57:12;;;;;;;24.90;7.00;;;;;;;;;;5075261;28;20479;-75
2024/03/30 12:59:37;;;;;;;14.50;5.80;;;;;;;;;;5074360;28;20470;-75
2024/03/30 13:02:04;;;;;;;15.37;7.17;;;;;;;;;;5070858;28;20455;-71
2024/03/30 13:04:30;;;;;;;21.47;8.50;;;;;;;;;;5074599;28;20198;-72
2024/03/30 13:06:57;;;;;;;25.20;8.23;;;;;;;;;;5075064;28;20759;-71
2024/03/30 13:09:23;;;;;;;15.07;7.33;;;;;;;;;;5066329;28;20444;-73
2024/03/30 13:11:51;;;;;;;18.13;8.00;;;;;;;;;;5062639;28;20444;-72
2024/03/30 13:14:17;;;;;;;15.00;7.73;;;;;;;;;;5065108;28;20459;-73
2024/03/30 13:16:43;;;;;;;16.53;8.07;;;;;;;;;;5072485;28;20512;-71
2024/03/30 13:19:10;;;;;;;19.97;9.10;;;;;;;;;;5069954;28;20213;-72
2024/03/30 13:21:38;;;;;;;19.43;7.70;;;;;;;;;;5067817;28;21001;-71
2024/03/30 13:24:04;;;;;;;17.20;8.07;;;;;;;;;;5061261;28;20487;-73
2024/03/30 13:26:30;;;;;;;20.33;8.70;;;;;;;;;;5073946;28;21750;-72
2024/03/30 13:28:57;;;;;;;23.10;8.60;;;;;;;;;;5076518;28;20210;-71
2024/03/30 13:31:24;;;;;;;18.30;9.97;;;;;;;;;;5069540;28;21051;-72
2024/03/30 13:33:49;;;;;;;18.73;8.83;;;;;;;;;;5076825;28;20444;-73
2024/03/30 13:36:16;;;;;;;14.33;9.47;;;;;;;;;;5076303;28;20464;-72
2024/03/30 13:38:41;;;;;;;23.27;9.73;;;;;;;;;;5078546;28;20221;-72
2024/03/30 13:41:08;;;;;;;26.50;9.70;;;;;;;;;;5077749;28;20456;-72
2024/03/30 13:43:33;;;;;;;15.57;9.43;;;;;;;;;;5076846;28;20205;-70
2024/03/30 13:46:01;;;;;;;18.23;9.00;;;;;;;;;;5081107;28;20440;-72
2024/03/30 13:48:27;;;;;;;19.83;7.60;;;;;;;;;;5079943;28;20198;-72
2024/03/30 13:50:54;;;;;;;25.27;8.13;;;;;;;;;;5088177;28;20454;-72
2024/03/30 13:53:19;;;;;;;24.43;9.10;;;;;;;;;;5079560;28;20896;-73
2024/03/30 13:55:46;;;;;;;28.50;8.30;;;;;;;;;;5086547;28;20455;-72
2024/03/30 13:58:15;;;;;;;20.33;8.77;;;;;;;;;;5087056;28;20569;-72
2024/03/30 14:00:43;;;;;;;19.03;8.47;;;;;;;;;;5070782;28;20452;-73
2024/03/30 14:03:10;;;;;;;16.60;8.47;;;;;;;;;;5078078;28;20900;-72
2024/03/30 14:05:36;;;;;;;23.67;8.80;;;;;;;;;;5080638;28;20460;-73
2024/03/30 14:08:02;;;;;;;22.87;7.37;;;;;;;;;;5075400;28;20444;-73
2024/03/30 14:10:29;;;;;;;17.93;7.53;;;;;;;;;;5067019;28;21168;-73
2024/03/30 14:12:54;;;;;;;18.47;8.07;;;;;;;;;;5070192;28;20492;-73
2024/03/30 14:15:21;;;;;;;16.93;9.07;;;;;;;;;;5069871;28;20694;-73
2024/03/30 14:17:48;;;;;;;18.37;7.83;;;;;;;;;;5080078;28;20244;-73
2024/03/30 14:20:17;;;;;;;17.63;7.70;;;;;;;;;;5079954;28;20487;-73
2024/03/30 14:22:43;;;;;;;20.90;8.13;;;;;;;;;;5080278;28;20456;-73
2024/03/30 14:25:09;;;;;;;18.63;8.77;;;;;;;;;;5080035;28;20516;-73
2024/03/30 14:27:35;;;;;;;22.13;9.00;;;;;;;;;;5074690;28;20209;-73
2024/03/30 14:30:01;;;;;;;27.60;9.47;;;;;;;;;;5075159;28;20454;-72
2024/03/30 14:32:27;;;;;;;32.67;10.47;;;;;;;;;;5070799;28;20222;-73